sensor_id;sensor_type;location;lat;lon;timestamp;pressure;altitude;pressure_sealevel;temperature;humidity
62164;BME280;48149;51.132;7.178;2022-10-16T00:00:27;98296.41;;;16.87;100.00
62164;BME280;48149;51.132;7.178;2022-10-16T00:02:52;98296.13;;;16.78;100.00
62164;BME280;48149;51.132;7.178;2022-10-16T00:05:17;98301.94;;;16.70;100.00
62164;BME280;48149;51.132;7.178;2022-10-16T00:07:43;98301.09;;;16.60;100.00
62164;BME280;48149;51.132;7.178;2022-10-16T00:10:08;98308.03;;;16.76;100.00
62164;BME280;48149;51.132;7.178;2022-10-16T00:12:33;98319.00;;;16.00;100.00
62164;BME280;48149;51.132;7.178;2022-10-16T00:14:59;98318.44;;;16.45;100.00
62164;BME280;48149;51.132;7.178;2022-10-16T00:17:24;98313.94;;;16.41;100.00
62164;BME280;48149;51.132;7.178;2022-10-16T00:22:18;98310.72;;;16.29;100.00
62164;BME280;48149;51.132;7.178;2022-10-16T00:24:43;98325.31;;;16.41;100.00
62164;BME280;48149;51.132;7.178;2022-10-16T00:27:09;98342.06;;;16.20;100.00
62164;BME280;48149;51.132;7.178;2022-10-16T00:29:35;98336.84;;;16.30;100.00
62164;BME280;48149;51.132;7.178;2022-10-16T00:32:00;98333.25;;;16.46;100.00
62164;BME280;48149;51.132;7.178;2022-10-16T00:34:25;98345.44;;;16.11;100.00
62164;BME280;48149;51.132;7.178;2022-10-16T00:36:51;98342.34;;;16.19;100.00
62164;BME280;48149;51.132;7.178;2022-10-16T00:39:18;98322.44;;;16.48;100.00
62164;BME280;48149;51.132;7.178;2022-10-16T00:41:44;98331.41;;;16.47;100.00
62164;BME280;48149;51.132;7.178;2022-10-16T00:46:53;98333.94;;;16.27;100.00
62164;BME280;48149;51.132;7.178;2022-10-16T00:49:19;98321.22;;;16.19;100.00
62164;BME280;48149;51.132;7.178;2022-10-16T00:51:45;98332.81;;;15.76;100.00
62164;BME280;48149;51.132;7.178;2022-10-16T00:54:22;98329.53;;;15.95;100.00
62164;BME280;48149;51.132;7.178;2022-10-16T00:56:48;98329.88;;;16.09;100.00
62164;BME280;48149;51.132;7.178;2022-10-16T00:59:47;98336.63;;;15.95;100.00
62164;BME280;48149;51.132;7.178;2022-10-16T01:02:07;98323.69;;;16.40;100.00
62164;BME280;48149;51.132;7.178;2022-10-16T01:04:40;98322.19;;;16.08;100.00
62164;BME280;48149;51.132;7.178;2022-10-16T01:07:09;98324.03;;;16.02;100.00
62164;BME280;48149;51.132;7.178;2022-10-16T01:09:40;98333.78;;;16.01;100.00
62164;BME280;48149;51.132;7.178;2022-10-16T01:14:54;98343.44;;;15.86;100.00
62164;BME280;48149;51.132;7.178;2022-10-16T01:17:24;98352.84;;;16.09;100.00
62164;BME280;48149;51.132;7.178;2022-10-16T01:20:06;98348.91;;;16.11;100.00
62164;BME280;48149;51.132;7.178;2022-10-16T01:22:48;98342.84;;;16.16;100.00
62164;BME280;48149;51.132;7.178;2022-10-16T01:25:22;98327.63;;;16.33;100.00
62164;BME280;48149;51.132;7.178;2022-10-16T01:27:50;98332.94;;;16.38;100.00
62164;BME280;48149;51.132;7.178;2022-10-16T01:30:21;98338.31;;;16.06;100.00
62164;BME280;48149;51.132;7.178;2022-10-16T01:32:59;98350.47;;;16.07;100.00
62164;BME280;48149;51.132;7.178;2022-10-16T01:35:38;98349.75;;;16.17;100.00
62164;BME280;48149;51.132;7.178;2022-10-16T01:40:32;98332.56;;;16.66;100.00
62164;BME280;48149;51.132;7.178;2022-10-16T01:42:59;98340.06;;;16.37;100.00
62164;BME280;48149;51.132;7.178;2022-10-16T01:45:25;98326.41;;;16.50;100.00
62164;BME280;48149;51.132;7.178;2022-10-16T01:47:53;98335.00;;;16.31;100.00
62164;BME280;48149;51.132;7.178;2022-10-16T01:50:18;98349.19;;;16.15;100.00
62164;BME280;48149;51.132;7.178;2022-10-16T01:52:46;98348.06;;;16.52;100.00
62164;BME280;48149;51.132;7.178;2022-10-16T01:55:16;98336.09;;;16.35;100.00
62164;BME280;48149;51.132;7.178;2022-10-16T01:57:44;98342.44;;;16.34;100.00
62164;BME280;48149;51.132;7.178;2022-10-16T02:00:12;98344.03;;;16.35;100.00
62164;BME280;48149;51.132;7.178;2022-10-16T02:02:40;98345.53;;;16.21;100.00
62164;BME280;48149;51.132;7.178;2022-10-16T02:07:41;98348.56;;;16.44;100.00
62164;BME280;48149;51.132;7.178;2022-10-16T02:10:07;98355.69;;;16.44;100.00
62164;BME280;48149;51.132;7.178;2022-10-16T02:12:32;98348.34;;;16.51;100.00
62164;BME280;48149;51.132;7.178;2022-10-16T02:15:00;98341.16;;;16.41;100.00
62164;BME280;48149;51.132;7.178;2022-10-16T02:17:25;98338.94;;;16.75;100.00
62164;BME280;48149;51.132;7.178;2022-10-16T02:19:52;98339.06;;;16.48;100.00
62164;BME280;48149;51.132;7.178;2022-10-16T02:22:38;98342.16;;;16.92;100.00
62164;BME280;48149;51.132;7.178;2022-10-16T02:25:06;98338.38;;;16.63;100.00
62164;BME280;48149;51.132;7.178;2022-10-16T02:30:04;98351.63;;;16.73;100.00
62164;BME280;48149;51.132;7.178;2022-10-16T02:32:34;98358.94;;;16.56;100.00
62164;BME280;48149;51.132;7.178;2022-10-16T02:35:01;98359.06;;;16.86;100.00
62164;BME280;48149;51.132;7.178;2022-10-16T02:37:27;98363.53;;;16.81;100.00
62164;BME280;48149;51.132;7.178;2022-10-16T02:39:53;98359.53;;;16.68;100.00
62164;BME280;48149;51.132;7.178;2022-10-16T02:42:19;98365.91;;;16.30;100.00
62164;BME280;48149;51.132;7.178;2022-10-16T02:44:45;98362.91;;;16.59;100.00
62164;BME280;48149;51.132;7.178;2022-10-16T02:47:11;98358.63;;;16.52;100.00
62164;BME280;48149;51.132;7.178;2022-10-16T02:49:37;98359.16;;;16.49;100.00
62164;BME280;48149;51.132;7.178;2022-10-16T02:52:02;98355.81;;;16.64;100.00
62164;BME280;48149;51.132;7.178;2022-10-16T02:54:28;98352.44;;;16.79;100.00
62164;BME280;48149;51.132;7.178;2022-10-16T02:56:53;98354.09;;;16.43;100.00
62164;BME280;48149;51.132;7.178;2022-10-16T02:59:19;98363.25;;;16.25;100.00
62164;BME280;48149;51.132;7.178;2022-10-16T03:01:44;98355.19;;;16.47;100.00
62164;BME280;48149;51.132;7.178;2022-10-16T03:04:09;98355.34;;;16.30;100.00
62164;BME280;48149;51.132;7.178;2022-10-16T03:06:35;98359.41;;;16.48;100.00
62164;BME280;48149;51.132;7.178;2022-10-16T03:09:00;98355.28;;;16.62;100.00
62164;BME280;48149;51.132;7.178;2022-10-16T03:11:26;98354.88;;;16.38;100.00
62164;BME280;48149;51.132;7.178;2022-10-16T03:13:51;98360.38;;;16.32;100.00
62164;BME280;48149;51.132;7.178;2022-10-16T03:16:16;98370.94;;;15.90;100.00
62164;BME280;48149;51.132;7.178;2022-10-16T03:18:43;98363.56;;;16.39;100.00
62164;BME280;48149;51.132;7.178;2022-10-16T03:21:08;98358.94;;;16.09;100.00
62164;BME280;48149;51.132;7.178;2022-10-16T03:23:33;98356.66;;;16.28;100.00
62164;BME280;48149;51.132;7.178;2022-10-16T03:26:00;98345.44;;;16.11;100.00
62164;BME280;48149;51.132;7.178;2022-10-16T03:28:26;98327.38;;;15.92;100.00
62164;BME280;48149;51.132;7.178;2022-10-16T03:30:51;98329.31;;;16.02;100.00
62164;BME280;48149;51.132;7.178;2022-10-16T03:33:16;98345.19;;;15.70;100.00
62164;BME280;48149;51.132;7.178;2022-10-16T03:35:41;98355.28;;;15.78;100.00
62164;BME280;48149;51.132;7.178;2022-10-16T03:38:11;98353.06;;;15.65;100.00
62164;BME280;48149;51.132;7.178;2022-10-16T03:40:36;98345.84;;;15.87;100.00
62164;BME280;48149;51.132;7.178;2022-10-16T03:43:01;98359.34;;;15.91;100.00
62164;BME280;48149;51.132;7.178;2022-10-16T03:45:26;98356.44;;;15.92;100.00
62164;BME280;48149;51.132;7.178;2022-10-16T03:47:52;98359.88;;;15.93;100.00
62164;BME280;48149;51.132;7.178;2022-10-16T03:50:17;98364.00;;;16.16;100.00
62164;BME280;48149;51.132;7.178;2022-10-16T03:52:44;98352.75;;;16.35;100.00
62164;BME280;48149;51.132;7.178;2022-10-16T03:55:09;98362.69;;;16.18;100.00
62164;BME280;48149;51.132;7.178;2022-10-16T03:57:35;98351.97;;;15.98;100.00
62164;BME280;48149;51.132;7.178;2022-10-16T04:00:01;98361.06;;;16.17;100.00
62164;BME280;48149;51.132;7.178;2022-10-16T04:02:26;98374.78;;;15.72;100.00
62164;BME280;48149;51.132;7.178;2022-10-16T04:04:51;98376.63;;;16.14;100.00
62164;BME280;48149;51.132;7.178;2022-10-16T04:07:17;98378.56;;;15.86;100.00
62164;BME280;48149;51.132;7.178;2022-10-16T04:09:42;98396.13;;;16.02;100.00
62164;BME280;48149;51.132;7.178;2022-10-16T04:12:08;98389.81;;;16.09;100.00
62164;BME280;48149;51.132;7.178;2022-10-16T04:14:33;98387.75;;;16.16;100.00
62164;BME280;48149;51.132;7.178;2022-10-16T04:16:59;98376.41;;;16.20;100.00
62164;BME280;48149;51.132;7.178;2022-10-16T04:19:24;98376.47;;;16.30;100.00
62164;BME280;48149;51.132;7.178;2022-10-16T04:21:49;98396.78;;;16.20;100.00
62164;BME280;48149;51.132;7.178;2022-10-16T04:24:14;98385.75;;;15.96;100.00
62164;BME280;48149;51.132;7.178;2022-10-16T04:26:40;98396.13;;;16.08;100.00
62164;BME280;48149;51.132;7.178;2022-10-16T04:29:05;98390.19;;;16.22;100.00
62164;BME280;48149;51.132;7.178;2022-10-16T04:31:32;98400.44;;;16.19;100.00
62164;BME280;48149;51.132;7.178;2022-10-16T04:33:57;98403.81;;;16.51;100.00
62164;BME280;48149;51.132;7.178;2022-10-16T04:36:22;98406.75;;;16.13;100.00
62164;BME280;48149;51.132;7.178;2022-10-16T04:38:47;98403.81;;;16.09;100.00
62164;BME280;48149;51.132;7.178;2022-10-16T04:41:13;98415.56;;;15.91;100.00
62164;BME280;48149;51.132;7.178;2022-10-16T04:43:38;98411.44;;;16.06;100.00
62164;BME280;48149;51.132;7.178;2022-10-16T04:46:03;98410.59;;;16.32;100.00
62164;BME280;48149;51.132;7.178;2022-10-16T04:48:29;98407.69;;;15.96;100.00
62164;BME280;48149;51.132;7.178;2022-10-16T04:50:56;98401.19;;;16.09;100.00
62164;BME280;48149;51.132;7.178;2022-10-16T04:53:23;98403.91;;;15.87;100.00
62164;BME280;48149;51.132;7.178;2022-10-16T04:55:49;98419.25;;;15.90;100.00
62164;BME280;48149;51.132;7.178;2022-10-16T04:58:17;98419.63;;;16.04;100.00
62164;BME280;48149;51.132;7.178;2022-10-16T05:00:43;98414.78;;;16.28;100.00
62164;BME280;48149;51.132;7.178;2022-10-16T05:03:08;98437.84;;;15.74;100.00
62164;BME280;48149;51.132;7.178;2022-10-16T05:05:36;98437.38;;;16.14;100.00
62164;BME280;48149;51.132;7.178;2022-10-16T05:08:01;98436.00;;;16.06;100.00
62164;BME280;48149;51.132;7.178;2022-10-16T05:10:26;98424.06;;;15.98;100.00
62164;BME280;48149;51.132;7.178;2022-10-16T05:12:52;98423.09;;;16.10;100.00
62164;BME280;48149;51.132;7.178;2022-10-16T05:15:17;98420.72;;;15.76;100.00
62164;BME280;48149;51.132;7.178;2022-10-16T05:17:43;98435.09;;;15.90;100.00
62164;BME280;48149;51.132;7.178;2022-10-16T05:20:09;98446.34;;;15.54;100.00
62164;BME280;48149;51.132;7.178;2022-10-16T05:22:34;98438.13;;;15.77;100.00
62164;BME280;48149;51.132;7.178;2022-10-16T05:27:28;98448.22;;;15.54;100.00
62164;BME280;48149;51.132;7.178;2022-10-16T05:29:53;98451.31;;;15.72;100.00
62164;BME280;48149;51.132;7.178;2022-10-16T05:32:18;98459.22;;;15.72;100.00
62164;BME280;48149;51.132;7.178;2022-10-16T05:34:44;98458.63;;;15.65;100.00
62164;BME280;48149;51.132;7.178;2022-10-16T05:37:10;98448.72;;;15.82;100.00
62164;BME280;48149;51.132;7.178;2022-10-16T05:39:36;98463.78;;;15.55;100.00
62164;BME280;48149;51.132;7.178;2022-10-16T05:42:02;98469.50;;;16.00;100.00
62164;BME280;48149;51.132;7.178;2022-10-16T05:44:27;98471.69;;;16.09;100.00
62164;BME280;48149;51.132;7.178;2022-10-16T05:46:52;98463.88;;;16.24;100.00
62164;BME280;48149;51.132;7.178;2022-10-16T05:49:19;98472.16;;;16.00;100.00
62164;BME280;48149;51.132;7.178;2022-10-16T05:51:44;98470.53;;;16.31;100.00
62164;BME280;48149;51.132;7.178;2022-10-16T05:54:09;98481.50;;;16.13;100.00
62164;BME280;48149;51.132;7.178;2022-10-16T05:56:36;98480.28;;;16.26;100.00
62164;BME280;48149;51.132;7.178;2022-10-16T05:59:03;98485.91;;;16.08;100.00
62164;BME280;48149;51.132;7.178;2022-10-16T06:01:28;98485.84;;;15.97;100.00
62164;BME280;48149;51.132;7.178;2022-10-16T06:03:53;98487.56;;;16.14;100.00
62164;BME280;48149;51.132;7.178;2022-10-16T06:06:19;98504.91;;;16.05;100.00
62164;BME280;48149;51.132;7.178;2022-10-16T06:08:46;98508.69;;;16.14;100.00
62164;BME280;48149;51.132;7.178;2022-10-16T06:11:16;98495.31;;;16.25;100.00
62164;BME280;48149;51.132;7.178;2022-10-16T06:13:41;98512.69;;;16.16;100.00
62164;BME280;48149;51.132;7.178;2022-10-16T06:16:08;98511.06;;;16.42;100.00
62164;BME280;48149;51.132;7.178;2022-10-16T06:18:34;98505.41;;;16.33;100.00
62164;BME280;48149;51.132;7.178;2022-10-16T06:20:59;98516.06;;;16.12;100.00
62164;BME280;48149;51.132;7.178;2022-10-16T06:23:24;98523.53;;;16.20;100.00
62164;BME280;48149;51.132;7.178;2022-10-16T06:25:50;98510.41;;;16.30;100.00
62164;BME280;48149;51.132;7.178;2022-10-16T06:28:17;98522.19;;;16.49;100.00
62164;BME280;48149;51.132;7.178;2022-10-16T06:30:42;98518.09;;;16.31;100.00
62164;BME280;48149;51.132;7.178;2022-10-16T06:33:09;98520.00;;;16.41;100.00
62164;BME280;48149;51.132;7.178;2022-10-16T06:35:41;98528.03;;;16.51;100.00
62164;BME280;48149;51.132;7.178;2022-10-16T06:38:06;98516.16;;;16.53;100.00
62164;BME280;48149;51.132;7.178;2022-10-16T06:40:31;98520.53;;;16.43;100.00
62164;BME280;48149;51.132;7.178;2022-10-16T06:42:57;98523.09;;;17.06;100.00
62164;BME280;48149;51.132;7.178;2022-10-16T06:45:22;98519.81;;;16.89;100.00
62164;BME280;48149;51.132;7.178;2022-10-16T06:47:48;98532.88;;;17.06;100.00
62164;BME280;48149;51.132;7.178;2022-10-16T06:50:14;98536.91;;;16.72;100.00
62164;BME280;48149;51.132;7.178;2022-10-16T06:52:39;98545.94;;;17.28;100.00
62164;BME280;48149;51.132;7.178;2022-10-16T06:55:05;98553.66;;;17.29;100.00
62164;BME280;48149;51.132;7.178;2022-10-16T06:57:30;98551.47;;;17.73;100.00
62164;BME280;48149;51.132;7.178;2022-10-16T06:59:56;98561.50;;;17.14;100.00
62164;BME280;48149;51.132;7.178;2022-10-16T07:02:21;98571.28;;;17.14;100.00
62164;BME280;48149;51.132;7.178;2022-10-16T07:04:47;98562.41;;;17.35;100.00
62164;BME280;48149;51.132;7.178;2022-10-16T07:07:14;98571.44;;;16.97;100.00
62164;BME280;48149;51.132;7.178;2022-10-16T07:09:40;98573.94;;;17.19;100.00
62164;BME280;48149;51.132;7.178;2022-10-16T07:12:06;98579.88;;;17.41;100.00
62164;BME280;48149;51.132;7.178;2022-10-16T07:14:32;98584.19;;;17.52;100.00
62164;BME280;48149;51.132;7.178;2022-10-16T07:16:57;98585.88;;;17.73;100.00
62164;BME280;48149;51.132;7.178;2022-10-16T07:19:23;98594.16;;;17.87;100.00
62164;BME280;48149;51.132;7.178;2022-10-16T07:21:52;98596.31;;;18.10;100.00
62164;BME280;48149;51.132;7.178;2022-10-16T07:24:18;98595.16;;;17.76;100.00
62164;BME280;48149;51.132;7.178;2022-10-16T07:26:44;98603.69;;;18.03;100.00
62164;BME280;48149;51.132;7.178;2022-10-16T07:29:13;98611.13;;;18.06;100.00
62164;BME280;48149;51.132;7.178;2022-10-16T07:31:39;98612.34;;;17.73;100.00
62164;BME280;48149;51.132;7.178;2022-10-16T07:34:04;98608.75;;;18.09;100.00
62164;BME280;48149;51.132;7.178;2022-10-16T07:36:32;98617.41;;;17.80;100.00
62164;BME280;48149;51.132;7.178;2022-10-16T07:38:57;98623.84;;;18.04;100.00
62164;BME280;48149;51.132;7.178;2022-10-16T07:41:22;98625.75;;;18.24;100.00
62164;BME280;48149;51.132;7.178;2022-10-16T07:43:48;98635.03;;;18.31;100.00
62164;BME280;48149;51.132;7.178;2022-10-16T07:46:14;98641.38;;;18.15;100.00
62164;BME280;48149;51.132;7.178;2022-10-16T07:48:40;98637.50;;;17.71;100.00
62164;BME280;48149;51.132;7.178;2022-10-16T07:51:06;98641.25;;;17.85;100.00
62164;BME280;48149;51.132;7.178;2022-10-16T07:53:32;98643.31;;;17.68;100.00
62164;BME280;48149;51.132;7.178;2022-10-16T07:56:03;98648.69;;;17.36;100.00
62164;BME280;48149;51.132;7.178;2022-10-16T07:58:29;98650.13;;;17.17;100.00
62164;BME280;48149;51.132;7.178;2022-10-16T08:00:55;98653.34;;;17.61;100.00
62164;BME280;48149;51.132;7.178;2022-10-16T08:03:21;98669.63;;;17.47;100.00
62164;BME280;48149;51.132;7.178;2022-10-16T08:05:46;98666.56;;;17.61;100.00
62164;BME280;48149;51.132;7.178;2022-10-16T08:08:13;98682.47;;;17.66;100.00
62164;BME280;48149;51.132;7.178;2022-10-16T08:10:38;98667.91;;;17.68;100.00
62164;BME280;48149;51.132;7.178;2022-10-16T08:13:03;98674.00;;;18.31;100.00
62164;BME280;48149;51.132;7.178;2022-10-16T08:15:29;98671.34;;;18.31;100.00
62164;BME280;48149;51.132;7.178;2022-10-16T08:17:58;98678.09;;;17.86;100.00
62164;BME280;48149;51.132;7.178;2022-10-16T08:20:24;98681.97;;;18.31;100.00
62164;BME280;48149;51.132;7.178;2022-10-16T08:22:50;98681.75;;;18.57;100.00
62164;BME280;48149;51.132;7.178;2022-10-16T08:25:15;98685.34;;;18.16;100.00
62164;BME280;48149;51.132;7.178;2022-10-16T08:27:40;98687.00;;;18.47;100.00
62164;BME280;48149;51.132;7.178;2022-10-16T08:30:06;98686.69;;;18.24;100.00
62164;BME280;48149;51.132;7.178;2022-10-16T08:32:31;98683.53;;;18.27;100.00
62164;BME280;48149;51.132;7.178;2022-10-16T08:35:00;98691.28;;;18.43;100.00
62164;BME280;48149;51.132;7.178;2022-10-16T08:37:30;98689.41;;;19.75;100.00
62164;BME280;48149;51.132;7.178;2022-10-16T08:39:58;98692.09;;;20.78;100.00
62164;BME280;48149;51.132;7.178;2022-10-16T08:42:32;98698.22;;;21.17;96.83
62164;BME280;48149;51.132;7.178;2022-10-16T08:45:07;98705.19;;;23.44;86.34
62164;BME280;48149;51.132;7.178;2022-10-16T08:47:45;98717.63;;;21.52;92.72
62164;BME280;48149;51.132;7.178;2022-10-16T08:50:15;98702.81;;;23.83;79.76
62164;BME280;48149;51.132;7.178;2022-10-16T08:52:43;98713.66;;;22.81;83.82
62164;BME280;48149;51.132;7.178;2022-10-16T08:55:28;98710.44;;;22.61;82.95
62164;BME280;48149;51.132;7.178;2022-10-16T08:57:55;98732.91;;;23.62;81.29
62164;BME280;48149;51.132;7.178;2022-10-16T09:00:21;98720.06;;;24.81;70.74
62164;BME280;48149;51.132;7.178;2022-10-16T09:07:49;98732.25;;;25.10;67.66
62164;BME280;48149;51.132;7.178;2022-10-16T09:10:26;98725.69;;;23.89;74.45
62164;BME280;48149;51.132;7.178;2022-10-16T09:23:21;98736.66;;;24.70;67.15
62164;BME280;48149;51.132;7.178;2022-10-16T09:25:49;98742.78;;;24.70;64.81
62164;BME280;48149;51.132;7.178;2022-10-16T09:28:15;98733.25;;;26.71;57.92
62164;BME280;48149;51.132;7.178;2022-10-16T09:30:41;98725.47;;;25.12;60.85
62164;BME280;48149;51.132;7.178;2022-10-16T09:33:09;98728.94;;;27.47;56.54
62164;BME280;48149;51.132;7.178;2022-10-16T09:35:42;98727.06;;;26.54;54.91
62164;BME280;48149;51.132;7.178;2022-10-16T09:38:10;98718.06;;;26.75;52.45
62164;BME280;48149;51.132;7.178;2022-10-16T09:40:45;98724.50;;;25.83;59.05
62164;BME280;48149;51.132;7.178;2022-10-16T09:45:36;98730.94;;;25.82;59.34
62164;BME280;48149;51.132;7.178;2022-10-16T09:48:09;98743.44;;;26.35;58.89
62164;BME280;48149;51.132;7.178;2022-10-16T09:50:36;98743.84;;;27.02;55.46
62164;BME280;48149;51.132;7.178;2022-10-16T09:53:05;98731.75;;;27.97;54.29
62164;BME280;48149;51.132;7.178;2022-10-16T09:55:30;98737.16;;;27.51;49.89
62164;BME280;48149;51.132;7.178;2022-10-16T09:57:56;98744.97;;;27.10;52.13
62164;BME280;48149;51.132;7.178;2022-10-16T10:00:22;98735.47;;;26.86;54.83
62164;BME280;48149;51.132;7.178;2022-10-16T10:02:47;98738.53;;;28.03;51.33
62164;BME280;48149;51.132;7.178;2022-10-16T10:05:24;98730.63;;;28.07;48.42
62164;BME280;48149;51.132;7.178;2022-10-16T10:08:12;98748.25;;;28.25;48.89
62164;BME280;48149;51.132;7.178;2022-10-16T10:10:41;98733.94;;;28.04;49.34
62164;BME280;48149;51.132;7.178;2022-10-16T10:13:19;98748.91;;;28.22;48.03
62164;BME280;48149;51.132;7.178;2022-10-16T10:15:45;98738.97;;;28.43;46.98
62164;BME280;48149;51.132;7.178;2022-10-16T10:18:18;98738.00;;;30.24;43.18
62164;BME280;48149;51.132;7.178;2022-10-16T10:20:45;98735.88;;;29.93;41.86
62164;BME280;48149;51.132;7.178;2022-10-16T10:23:19;98735.78;;;28.91;46.39
62164;BME280;48149;51.132;7.178;2022-10-16T10:28:16;98747.22;;;31.55;39.96
62164;BME280;48149;51.132;7.178;2022-10-16T10:36:04;98731.22;;;28.13;45.35
62164;BME280;48149;51.132;7.178;2022-10-16T10:46:05;98747.31;;;30.39;38.12
62164;BME280;48149;51.132;7.178;2022-10-16T10:48:46;98743.00;;;27.53;44.89
62164;BME280;48149;51.132;7.178;2022-10-16T10:51:20;98751.88;;;26.11;49.36
62164;BME280;48149;51.132;7.178;2022-10-16T11:01:52;98754.22;;;28.39;45.00
62164;BME280;48149;51.132;7.178;2022-10-16T11:04:57;98756.16;;;31.15;37.56
62164;BME280;48149;51.132;7.178;2022-10-16T11:07:28;98743.81;;;32.55;36.08
62164;BME280;48149;51.132;7.178;2022-10-16T11:09:59;98752.03;;;29.24;40.15
62164;BME280;48149;51.132;7.178;2022-10-16T11:12:27;98746.88;;;28.19;42.20
62164;BME280;48149;51.132;7.178;2022-10-16T11:17:23;98752.44;;;31.63;37.60
62164;BME280;48149;51.132;7.178;2022-10-16T11:22:36;98751.03;;;29.86;39.46
62164;BME280;48149;51.132;7.178;2022-10-16T11:25:18;98758.41;;;32.16;35.68
62164;BME280;48149;51.132;7.178;2022-10-16T11:30:25;98749.72;;;32.96;34.22
62164;BME280;48149;51.132;7.178;2022-10-16T11:38:03;98750.34;;;29.77;39.40
62164;BME280;48149;51.132;7.178;2022-10-16T11:40:35;98757.53;;;31.37;35.57
62164;BME280;48149;51.132;7.178;2022-10-16T11:43:16;98761.88;;;30.22;38.63
62164;BME280;48149;51.132;7.178;2022-10-16T11:45:44;98759.91;;;28.38;44.07
62164;BME280;48149;51.132;7.178;2022-10-16T11:53:11;98760.50;;;31.76;36.22
62164;BME280;48149;51.132;7.178;2022-10-16T11:55:39;98768.97;;;31.46;36.65
62164;BME280;48149;51.132;7.178;2022-10-16T12:01:00;98762.69;;;24.91;58.37
62164;BME280;48149;51.132;7.178;2022-10-16T12:03:35;98768.31;;;25.26;57.88
62164;BME280;48149;51.132;7.178;2022-10-16T12:08:27;98764.56;;;24.41;63.60
62164;BME280;48149;51.132;7.178;2022-10-16T12:10:53;98769.91;;;24.01;59.72
62164;BME280;48149;51.132;7.178;2022-10-16T12:13:37;98761.97;;;24.50;60.93
62164;BME280;48149;51.132;7.178;2022-10-16T12:16:06;98768.75;;;24.20;63.10
62164;BME280;48149;51.132;7.178;2022-10-16T12:18:32;98765.72;;;24.63;59.08
62164;BME280;48149;51.132;7.178;2022-10-16T12:20:57;98771.28;;;23.98;62.64
62164;BME280;48149;51.132;7.178;2022-10-16T12:26:23;98778.75;;;24.42;61.95
62164;BME280;48149;51.132;7.178;2022-10-16T12:28:48;98776.41;;;24.76;65.33
62164;BME280;48149;51.132;7.178;2022-10-16T12:31:16;98781.72;;;23.67;63.96
62164;BME280;48149;51.132;7.178;2022-10-16T12:33:43;98776.16;;;23.50;68.37
62164;BME280;48149;51.132;7.178;2022-10-16T12:36:26;98785.88;;;23.09;68.31
62164;BME280;48149;51.132;7.178;2022-10-16T12:38:53;98790.75;;;23.20;69.95
62164;BME280;48149;51.132;7.178;2022-10-16T12:43:50;98778.84;;;24.23;65.81
62164;BME280;48149;51.132;7.178;2022-10-16T12:48:42;98769.81;;;26.33;54.85
62164;BME280;48149;51.132;7.178;2022-10-16T12:51:51;98758.00;;;25.19;57.86
62164;BME280;48149;51.132;7.178;2022-10-16T12:54:19;98763.84;;;29.44;44.59
62164;BME280;48149;51.132;7.178;2022-10-16T13:17:52;98763.66;;;32.44;34.02
62164;BME280;48149;51.132;7.178;2022-10-16T13:20:25;98777.44;;;30.77;36.52
62164;BME280;48149;51.132;7.178;2022-10-16T13:23:02;98770.50;;;29.91;40.31
62164;BME280;48149;51.132;7.178;2022-10-16T13:28:05;98767.53;;;34.00;30.68
62164;BME280;48149;51.132;7.178;2022-10-16T13:30:40;98769.59;;;33.61;31.40
62164;BME280;48149;51.132;7.178;2022-10-16T13:33:17;98788.25;;;31.57;34.60
62164;BME280;48149;51.132;7.178;2022-10-16T13:35:47;98778.63;;;28.34;42.07
62164;BME280;48149;51.132;7.178;2022-10-16T13:38:15;98774.94;;;28.68;38.63
62164;BME280;48149;51.132;7.178;2022-10-16T13:40:50;98791.38;;;31.75;34.99
62164;BME280;48149;51.132;7.178;2022-10-16T13:43:17;98785.38;;;33.74;32.56
62164;BME280;48149;51.132;7.178;2022-10-16T13:45:51;98776.34;;;34.95;30.42
62164;BME280;48149;51.132;7.178;2022-10-16T13:48:17;98775.94;;;33.68;31.34
62164;BME280;48149;51.132;7.178;2022-10-16T13:50:42;98780.03;;;34.27;30.17
62164;BME280;48149;51.132;7.178;2022-10-16T13:53:12;98779.34;;;34.34;31.38
62164;BME280;48149;51.132;7.178;2022-10-16T13:55:38;98787.31;;;36.16;28.30
62164;BME280;48149;51.132;7.178;2022-10-16T13:58:13;98780.16;;;34.60;30.08
62164;BME280;48149;51.132;7.178;2022-10-16T14:00:39;98776.91;;;35.84;29.17
62164;BME280;48149;51.132;7.178;2022-10-16T14:03:16;98776.19;;;33.60;31.40
62164;BME280;48149;51.132;7.178;2022-10-16T14:06:02;98781.25;;;31.28;33.08
62164;BME280;48149;51.132;7.178;2022-10-16T14:08:27;98762.59;;;31.66;34.05
62164;BME280;48149;51.132;7.178;2022-10-16T14:10:57;98766.88;;;31.67;36.59
62164;BME280;48149;51.132;7.178;2022-10-16T14:13:27;98777.06;;;29.70;38.80
62164;BME280;48149;51.132;7.178;2022-10-16T14:15:54;98778.06;;;27.74;47.16
62164;BME280;48149;51.132;7.178;2022-10-16T14:18:21;98780.06;;;25.38;52.65
62164;BME280;48149;51.132;7.178;2022-10-16T14:20:47;98784.56;;;28.48;42.71
62164;BME280;48149;51.132;7.178;2022-10-16T14:23:20;98785.88;;;29.34;44.00
62164;BME280;48149;51.132;7.178;2022-10-16T14:25:46;98789.47;;;27.71;44.27
62164;BME280;48149;51.132;7.178;2022-10-16T14:28:17;98786.03;;;27.19;47.99
62164;BME280;48149;51.132;7.178;2022-10-16T14:30:58;98786.50;;;24.79;58.46
62164;BME280;48149;51.132;7.178;2022-10-16T14:36:05;98790.09;;;25.11;59.38
62164;BME280;48149;51.132;7.178;2022-10-16T14:38:31;98785.53;;;24.62;62.74
62164;BME280;48149;51.132;7.178;2022-10-16T14:40:58;98775.31;;;24.64;66.12
62164;BME280;48149;51.132;7.178;2022-10-16T14:43:31;98772.50;;;24.19;66.95
62164;BME280;48149;51.132;7.178;2022-10-16T14:45:57;98777.00;;;23.78;69.05
62164;BME280;48149;51.132;7.178;2022-10-16T14:48:24;98773.81;;;23.62;72.12
62164;BME280;48149;51.132;7.178;2022-10-16T14:50:50;98769.63;;;23.56;72.35
62164;BME280;48149;51.132;7.178;2022-10-16T14:53:21;98763.13;;;23.11;76.35